Time,TemperatureF,DewpointF,PressureIn,WindDirection,WindDirectionDegrees,WindSpeedMPH,WindSpeedGustMPH,Humidity,HourlyPrecipIn,Conditions,Clouds,dailyrainin,SoftwareType,DateUTC
2013-10-30 00:13:00,53.0,48.0,30.26,NE,50,0.0,0.0,83,0.00,,,0.00,,2013-10-30 04:13:00,
2013-10-30 00:44:00,52.0,47.0,30.26,ENE,58,0.0,1.0,84,0.00,,,0.00,,2013-10-30 04:44:00,
2013-10-30 00:53:00,52.0,47.0,30.26,ENE,58,0.0,0.0,84,0.00,,,0.00,,2013-10-30 04:53:00,
2013-10-30 01:22:00,52.0,48.0,30.25,ENE,58,0.0,0.0,85,0.00,,,0.00,,2013-10-30 05:22:00,
2013-10-30 01:53:00,51.0,47.0,30.24,ENE,58,0.0,0.0,86,0.00,,,0.00,,2013-10-30 05:53:00,
2013-10-30 02:13:00,51.0,47.0,30.24,ENE,58,0.0,1.0,87,0.00,,,0.00,,2013-10-30 06:13:00,
2013-10-30 02:22:00,51.0,48.0,30.24,ENE,58,0.0,0.0,88,0.00,,,0.00,,2013-10-30 06:22:00,
2013-10-30 02:42:00,51.0,47.0,30.23,ENE,58,0.0,0.0,87,0.00,,,0.00,,2013-10-30 06:42:00,
2013-10-30 02:52:00,51.0,47.0,30.23,ENE,58,0.0,0.0,87,0.00,,,0.00,,2013-10-30 06:52:00,
2013-10-30 03:12:00,50.0,46.0,30.23,ENE,58,0.0,0.0,87,0.00,,,0.00,,2013-10-30 07:12:00,
2013-10-30 03:22:00,50.0,47.0,30.23,ENE,58,0.0,1.0,88,0.00,,,0.00,,2013-10-30 07:22:00,
2013-10-30 03:42:00,50.0,47.0,30.23,ENE,58,0.0,0.0,89,0.00,,,0.00,,2013-10-30 07:42:00,
2013-10-30 03:52:00,50.0,47.0,30.23,ENE,58,0.0,0.0,90,0.00,,,0.00,,2013-10-30 07:52:00,
2013-10-30 04:12:00,50.0,47.0,30.22,ENE,58,0.0,0.0,90,0.00,,,0.00,,2013-10-30 08:12:00,
2013-10-30 04:22:00,51.0,48.0,30.22,ENE,58,0.0,0.0,90,0.00,,,0.00,,2013-10-30 08:22:00,
2013-10-30 04:42:00,50.0,47.0,30.22,ENE,58,0.0,0.0,89,0.00,,,0.00,,2013-10-30 08:42:00,
2013-10-30 04:52:00,50.0,47.0,30.22,ENE,58,0.0,0.0,89,0.00,,,0.00,,2013-10-30 08:52:00,
2013-10-30 05:11:00,51.0,48.0,30.22,ENE,58,0.0,0.0,90,0.00,,,0.00,,2013-10-30 09:11:00,
2013-10-30 05:22:00,51.0,48.0,30.22,ENE,58,0.0,0.0,90,0.00,,,0.00,,2013-10-30 09:22:00,
2013-10-30 05:43:00,51.0,48.0,30.22,ENE,58,0.0,0.0,90,0.00,,,0.00,,2013-10-30 09:43:00,
2013-10-30 05:54:00,51.0,48.0,30.22,ENE,58,0.0,0.0,89,0.00,,,0.00,,2013-10-30 09:54:00,
2013-10-30 06:13:00,50.0,47.0,30.23,ENE,58,0.0,0.0,88,0.00,,,0.00,,2013-10-30 10:13:00,
2013-10-30 06:23:00,51.0,48.0,30.23,ENE,58,0.0,0.0,90,0.00,,,0.00,,2013-10-30 10:23:00,
2013-10-30 06:43:00,51.0,48.0,30.23,ENE,58,0.0,0.0,90,0.00,,,0.00,,2013-10-30 10:43:00,
2013-10-30 06:53:00,51.0,48.0,30.23,ENE,58,0.0,0.0,90,0.00,,,0.00,,2013-10-30 10:53:00,
2013-10-30 07:12:00,51.0,48.0,30.23,ENE,58,0.0,0.0,90,0.00,,,0.00,,2013-10-30 11:12:00,
2013-10-30 07:22:00,51.0,48.0,30.23,ENE,58,0.0,0.0,90,0.00,,,0.00,,2013-10-30 11:22:00,
2013-10-30 07:42:00,50.0,47.0,30.24,ENE,58,0.0,0.0,89,0.00,,,0.00,,2013-10-30 11:42:00,
2013-10-30 07:52:00,51.0,48.0,30.24,ENE,58,0.0,0.0,90,0.00,,,0.00,,2013-10-30 11:52:00,
2013-10-30 08:12:00,51.0,48.0,30.23,ENE,58,0.0,0.0,90,0.00,,,0.00,,2013-10-30 12:12:00,
2013-10-30 08:22:00,51.0,48.0,30.23,ENE,58,0.0,0.0,90,0.00,,,0.00,,2013-10-30 12:22:00,
2013-10-30 08:42:00,51.0,48.0,30.24,ENE,58,0.0,0.0,90,0.00,,,0.00,,2013-10-30 12:42:00,
2013-10-30 08:52:00,51.0,48.0,30.24,ENE,58,0.0,1.0,91,0.00,,,0.00,,2013-10-30 12:52:00,
2013-10-30 09:11:00,52.0,49.0,30.24,ENE,58,0.0,0.0,91,0.00,,,0.00,,2013-10-30 13:11:00,
2013-10-30 09:22:00,52.0,49.0,30.24,ENE,58,0.0,0.0,91,0.00,,,0.00,,2013-10-30 13:22:00,
2013-10-30 09:52:00,52.0,49.0,30.25,ENE,58,0.0,0.0,90,0.00,,,0.00,,2013-10-30 13:52:00,
2013-10-30 10:11:00,53.0,50.0,30.25,ENE,58,0.0,1.0,89,0.00,,,0.00,,2013-10-30 14:11:00,
2013-10-30 10:21:00,53.0,50.0,30.26,ENE,58,0.0,0.0,88,0.00,,,0.00,,2013-10-30 14:21:00,
2013-10-30 10:42:00,54.0,51.0,30.26,ENE,58,0.0,0.0,91,0.00,,,0.00,,2013-10-30 14:42:00,
2013-10-30 10:52:00,55.0,52.0,30.26,ENE,58,0.0,1.0,90,0.00,,,0.00,,2013-10-30 14:52:00,
2013-10-30 11:11:00,56.0,52.0,30.26,ENE,58,0.0,1.0,87,0.00,,,0.00,,2013-10-30 15:11:00,
2013-10-30 11:22:00,56.0,52.0,30.26,ENE,58,0.0,2.0,87,0.00,,,0.00,,2013-10-30 15:22:00,
2013-10-30 11:43:00,57.0,53.0,30.25,SE,142,1.0,2.0,86,0.00,,,0.00,,2013-10-30 15:43:00,
2013-10-30 11:54:00,57.0,53.0,30.25,SE,142,1.0,2.0,87,0.00,,,0.00,,2013-10-30 15:54:00,
2013-10-30 12:12:00,58.0,53.0,30.25,SSW,199,0.0,3.0,84,0.00,,,0.00,,2013-10-30 16:12:00,
2013-10-30 12:23:00,59.0,54.0,30.24,SSW,211,1.0,3.0,84,0.00,,,0.00,,2013-10-30 16:23:00,
2013-10-30 12:43:00,62.0,55.0,30.24,SSE,152,4.0,6.0,78,0.00,,,0.00,,2013-10-30 16:43:00,
2013-10-30 12:53:00,62.0,54.0,30.23,SSE,150,1.0,7.0,75,0.00,,,0.00,,2013-10-30 16:53:00,
2013-10-30 13:23:00,65.0,55.0,30.22,SSW,211,3.0,6.0,71,0.00,,,0.00,,2013-10-30 17:23:00,
2013-10-30 13:42:00,66.0,54.0,30.21,NW,326,0.0,7.0,66,0.00,,,0.00,,2013-10-30 17:42:00,
2013-10-30 13:52:00,66.0,56.0,30.21,SW,218,1.0,5.0,69,0.00,,,0.00,,2013-10-30 17:52:00,
2013-10-30 14:12:00,67.0,56.0,30.20,SW,219,1.0,8.0,68,0.00,,,0.00,,2013-10-30 18:12:00,
2013-10-30 14:22:00,67.0,54.0,30.19,WSW,240,5.0,9.0,64,0.00,,,0.00,,2013-10-30 18:22:00,
2013-10-30 14:42:00,67.0,54.0,30.18,SE,131,0.0,4.0,64,0.00,,,0.00,,2013-10-30 18:42:00,
2013-10-30 14:52:00,67.0,56.0,30.18,South,190,1.0,4.0,68,0.00,,,0.00,,2013-10-30 18:52:00,
2013-10-30 15:11:00,67.0,56.0,30.18,WNW,282,0.0,4.0,67,0.00,,,0.00,,2013-10-30 19:11:00,
2013-10-30 15:22:00,67.0,55.0,30.17,WNW,282,0.0,1.0,66,0.00,,,0.00,,2013-10-30 19:22:00,
2013-10-30 15:52:00,67.0,56.0,30.17,West,281,0.0,3.0,67,0.00,,,0.00,,2013-10-30 19:52:00,
2013-10-30 16:12:00,68.0,56.0,30.16,South,173,0.0,3.0,65,0.00,,,0.00,,2013-10-30 20:12:00,
2013-10-30 16:22:00,68.0,56.0,30.16,SW,231,1.0,5.0,65,0.00,,,0.00,,2013-10-30 20:22:00,
2013-10-30 16:52:00,68.0,56.0,30.17,WSW,240,0.0,3.0,65,0.00,,,0.00,,2013-10-30 20:52:00,
2013-10-30 17:22:00,67.0,55.0,30.16,West,267,1.0,5.0,66,0.00,,,0.00,,2013-10-30 21:22:00,
2013-10-30 17:53:00,67.0,54.0,30.17,WSW,240,2.0,6.0,63,0.00,,,0.00,,2013-10-30 21:53:00,
2013-10-30 18:13:00,67.0,54.0,30.17,WSW,243,0.0,3.0,63,0.00,,,0.00,,2013-10-30 22:13:00,
2013-10-30 18:23:00,66.0,53.0,30.17,WSW,243,0.0,1.0,63,0.00,,,0.00,,2013-10-30 22:23:00,
2013-10-30 18:43:00,65.0,53.0,30.18,WSW,242,0.0,0.0,64,0.00,,,0.00,,2013-10-30 22:43:00,
2013-10-30 18:53:00,65.0,53.0,30.18,WSW,242,0.0,0.0,66,0.00,,,0.00,,2013-10-30 22:53:00,
2013-10-30 19:12:00,64.0,54.0,30.18,WSW,242,0.0,0.0,69,0.00,,,0.00,,2013-10-30 23:12:00,
2013-10-30 19:23:00,64.0,53.0,30.17,WSW,243,0.0,1.0,68,0.00,,,0.00,,2013-10-30 23:23:00,
2013-10-30 19:53:00,61.0,52.0,30.18,WSW,242,0.0,1.0,71,0.00,,,0.00,,2013-10-30 23:53:00,
2013-10-30 20:11:00,60.0,52.0,30.19,WSW,243,0.0,1.0,74,0.00,,,0.00,,2013-10-31 00:11:00,
2013-10-30 20:22:00,60.0,52.0,30.19,WSW,242,0.0,1.0,75,0.00,,,0.00,,2013-10-31 00:22:00,
2013-10-30 20:52:00,58.0,51.0,30.19,WSW,247,0.0,2.0,78,0.00,,,0.00,,2013-10-31 00:52:00,
2013-10-30 21:12:00,58.0,52.0,30.19,WSW,248,0.0,0.0,79,0.00,,,0.00,,2013-10-31 01:12:00,
2013-10-30 21:22:00,57.0,51.0,30.19,North,0,0.0,2.0,80,0.00,,,0.00,,2013-10-31 01:22:00,
2013-10-30 21:42:00,57.0,51.0,30.19,North,0,1.0,2.0,81,0.00,,,0.00,,2013-10-31 01:42:00,
2013-10-30 21:52:00,57.0,52.0,30.19,North,0,0.0,2.0,82,0.00,,,0.00,,2013-10-31 01:52:00,
2013-10-30 22:12:00,56.0,51.0,30.19,North,0,1.0,2.0,83,0.00,,,0.00,,2013-10-31 02:12:00,
2013-10-30 22:22:00,56.0,51.0,30.19,NE,37,0.0,3.0,84,0.00,,,0.00,,2013-10-31 02:22:00,
2013-10-30 23:12:00,56.0,52.0,30.20,NE,53,0.0,4.0,85,0.00,,,0.00,,2013-10-31 03:12:00,
2013-10-30 23:22:00,56.0,52.0,30.19,NE,53,0.0,2.0,85,0.00,,,0.00,,2013-10-31 03:22:00,
2013-10-30 23:44:00,56.0,52.0,30.19,ENE,59,0.0,1.0,86,0.00,,,0.00,,2013-10-31 03:44:00,
2013-10-30 23:55:00,55.0,51.0,30.19,ENE,59,0.0,2.0,87,0.00,,,0.00,,2013-10-31 03:55:00,